sensor_id;sensor_type;location;lat;lon;timestamp;temperature;humidity
62464;SHT31;48512;48.552;9.380;2022-12-18T00:00:39;-10.86;77.57
62464;SHT31;48512;48.552;9.380;2022-12-18T00:03:04;-10.99;77.65
62464;SHT31;48512;48.552;9.380;2022-12-18T00:05:32;-10.95;77.68
62464;SHT31;48512;48.552;9.380;2022-12-18T00:07:57;-10.92;77.71
62464;SHT31;48512;48.552;9.380;2022-12-18T00:10:22;-10.89;77.34
62464;SHT31;48512;48.552;9.380;2022-12-18T00:12:47;-10.96;77.35
62464;SHT31;48512;48.552;9.380;2022-12-18T00:15:15;-11.18;77.11
62464;SHT31;48512;48.552;9.380;2022-12-18T00:17:40;-11.43;77.14
62464;SHT31;48512;48.552;9.380;2022-12-18T00:20:06;-11.47;77.99
62464;SHT31;48512;48.552;9.380;2022-12-18T00:22:34;-11.44;78.38
62464;SHT31;48512;48.552;9.380;2022-12-18T00:24:59;-11.47;77.98
62464;SHT31;48512;48.552;9.380;2022-12-18T00:27:26;-11.46;77.86
62464;SHT31;48512;48.552;9.380;2022-12-18T00:29:52;-11.53;78.26
62464;SHT31;48512;48.552;9.380;2022-12-18T00:32:17;-11.64;78.43
62464;SHT31;48512;48.552;9.380;2022-12-18T00:34:43;-11.50;78.35
62464;SHT31;48512;48.552;9.380;2022-12-18T00:37:08;-11.48;78.40
62464;SHT31;48512;48.552;9.380;2022-12-18T00:39:34;-11.47;78.46
62464;SHT31;48512;48.552;9.380;2022-12-18T00:41:59;-11.50;78.20
62464;SHT31;48512;48.552;9.380;2022-12-18T00:44:42;-11.36;78.24
62464;SHT31;48512;48.552;9.380;2022-12-18T00:47:08;-11.23;78.32
62464;SHT31;48512;48.552;9.380;2022-12-18T00:49:33;-11.30;77.87
62464;SHT31;48512;48.552;9.380;2022-12-18T00:51:58;-11.24;78.13
62464;SHT31;48512;48.552;9.380;2022-12-18T00:54:23;-11.12;77.45
62464;SHT31;48512;48.552;9.380;2022-12-18T00:56:49;-11.18;78.32
62464;SHT31;48512;48.552;9.380;2022-12-18T00:59:14;-11.11;78.72
62464;SHT31;48512;48.552;9.380;2022-12-18T01:01:40;-11.20;78.12
62464;SHT31;48512;48.552;9.380;2022-12-18T01:04:05;-11.18;77.82
62464;SHT31;48512;48.552;9.380;2022-12-18T01:06:30;-11.48;77.97
62464;SHT31;48512;48.552;9.380;2022-12-18T01:08:58;-11.30;77.94
62464;SHT31;48512;48.552;9.380;2022-12-18T01:11:23;-11.36;77.70
62464;SHT31;48512;48.552;9.380;2022-12-18T01:13:49;-11.32;77.48
62464;SHT31;48512;48.552;9.380;2022-12-18T01:16:14;-11.20;77.70
62464;SHT31;48512;48.552;9.380;2022-12-18T01:18:40;-11.08;78.04
62464;SHT31;48512;48.552;9.380;2022-12-18T01:21:09;-10.94;78.33
62464;SHT31;48512;48.552;9.380;2022-12-18T01:23:34;-10.78;78.60
62464;SHT31;48512;48.552;9.380;2022-12-18T01:26:07;-11.02;78.51
62464;SHT31;48512;48.552;9.380;2022-12-18T01:28:32;-11.32;77.21
62464;SHT31;48512;48.552;9.380;2022-12-18T01:31:08;-11.54;77.03
62464;SHT31;48512;48.552;9.380;2022-12-18T01:33:33;-11.72;77.60
62464;SHT31;48512;48.552;9.380;2022-12-18T01:35:59;-11.75;78.25
62464;SHT31;48512;48.552;9.380;2022-12-18T01:38:24;-11.70;78.52
62464;SHT31;48512;48.552;9.380;2022-12-18T01:40:49;-11.57;78.69
62464;SHT31;48512;48.552;9.380;2022-12-18T01:43:21;-11.34;78.45
62464;SHT31;48512;48.552;9.380;2022-12-18T01:45:47;-11.51;78.24
62464;SHT31;48512;48.552;9.380;2022-12-18T01:48:12;-11.58;78.23
62464;SHT31;48512;48.552;9.380;2022-12-18T01:55:29;-11.33;77.88
62464;SHT31;48512;48.552;9.380;2022-12-18T01:57:56;-11.39;77.64
62464;SHT31;48512;48.552;9.380;2022-12-18T02:00:22;-11.13;77.32
62464;SHT31;48512;48.552;9.380;2022-12-18T02:02:48;-11.23;77.96
62464;SHT31;48512;48.552;9.380;2022-12-18T02:05:26;-11.13;78.44
62464;SHT31;48512;48.552;9.380;2022-12-18T02:13:12;-11.32;77.54
62464;SHT31;48512;48.552;9.380;2022-12-18T02:15:46;-11.34;78.05
62464;SHT31;48512;48.552;9.380;2022-12-18T02:18:17;-11.24;78.74
62464;SHT31;48512;48.552;9.380;2022-12-18T02:20:48;-11.22;79.09
62464;SHT31;48512;48.552;9.380;2022-12-18T02:28:23;-11.16;78.84
62464;SHT31;48512;48.552;9.380;2022-12-18T02:30:50;-11.23;79.57
62464;SHT31;48512;48.552;9.380;2022-12-18T02:33:19;-11.29;79.74
62464;SHT31;48512;48.552;9.380;2022-12-18T02:35:46;-11.47;80.02
62464;SHT31;48512;48.552;9.380;2022-12-18T02:38:12;-11.50;80.45
62464;SHT31;48512;48.552;9.380;2022-12-18T02:40:39;-11.40;80.56
62464;SHT31;48512;48.552;9.380;2022-12-18T02:43:12;-11.26;80.42
62464;SHT31;48512;48.552;9.380;2022-12-18T02:48:12;-10.95;80.05
62464;SHT31;48512;48.552;9.380;2022-12-18T02:50:39;-10.79;80.00
62464;SHT31;48512;48.552;9.380;2022-12-18T02:59:13;-10.51;80.18
62464;SHT31;48512;48.552;9.380;2022-12-18T03:04:12;-10.32;80.32
62464;SHT31;48512;48.552;9.380;2022-12-18T03:06:40;-10.46;80.41
62464;SHT31;48512;48.552;9.380;2022-12-18T03:09:07;-10.60;79.50
62464;SHT31;48512;48.552;9.380;2022-12-18T03:11:34;-10.85;79.06
62464;SHT31;48512;48.552;9.380;2022-12-18T03:14:21;-11.05;78.84
62464;SHT31;48512;48.552;9.380;2022-12-18T03:16:48;-11.08;78.89
62464;SHT31;48512;48.552;9.380;2022-12-18T03:19:18;-11.15;79.26
62464;SHT31;48512;48.552;9.380;2022-12-18T03:21:45;-11.03;79.49
62464;SHT31;48512;48.552;9.380;2022-12-18T03:24:12;-11.08;79.83
62464;SHT31;48512;48.552;9.380;2022-12-18T03:26:42;-10.86;79.53
62464;SHT31;48512;48.552;9.380;2022-12-18T03:29:55;-10.71;79.63
62464;SHT31;48512;48.552;9.380;2022-12-18T03:31:55;-10.65;79.70
62464;SHT31;48512;48.552;9.380;2022-12-18T03:34:23;-10.55;79.76
62464;SHT31;48512;48.552;9.380;2022-12-18T03:36:50;-10.63;80.17
62464;SHT31;48512;48.552;9.380;2022-12-18T03:39:18;-10.58;80.27
62464;SHT31;48512;48.552;9.380;2022-12-18T03:41:45;-10.94;79.28
62464;SHT31;48512;48.552;9.380;2022-12-18T03:44:13;-11.19;78.76
62464;SHT31;48512;48.552;9.380;2022-12-18T03:52:17;-11.33;78.93
62464;SHT31;48512;48.552;9.380;2022-12-18T03:54:43;-11.22;79.49
62464;SHT31;48512;48.552;9.380;2022-12-18T03:57:11;-11.23;79.61
62464;SHT31;48512;48.552;9.380;2022-12-18T03:59:38;-11.19;79.33
62464;SHT31;48512;48.552;9.380;2022-12-18T04:02:07;-11.20;79.34
62464;SHT31;48512;48.552;9.380;2022-12-18T04:04:34;-11.09;79.62
62464;SHT31;48512;48.552;9.380;2022-12-18T04:06:59;-11.16;79.42
62464;SHT31;48512;48.552;9.380;2022-12-18T04:09:27;-11.23;79.49
62464;SHT31;48512;48.552;9.380;2022-12-18T04:11:52;-11.15;79.64
62464;SHT31;48512;48.552;9.380;2022-12-18T04:14:18;-11.16;79.96
62464;SHT31;48512;48.552;9.380;2022-12-18T04:16:43;-11.05;79.78
62464;SHT31;48512;48.552;9.380;2022-12-18T04:19:08;-11.20;79.42
62464;SHT31;48512;48.552;9.380;2022-12-18T04:21:33;-11.24;79.58
62464;SHT31;48512;48.552;9.380;2022-12-18T04:24:01;-11.06;79.49
62464;SHT31;48512;48.552;9.380;2022-12-18T04:26:27;-11.09;79.79
62464;SHT31;48512;48.552;9.380;2022-12-18T04:28:52;-11.01;79.91
62464;SHT31;48512;48.552;9.380;2022-12-18T04:31:19;-11.11;79.84
62464;SHT31;48512;48.552;9.380;2022-12-18T04:33:45;-11.19;79.69
62464;SHT31;48512;48.552;9.380;2022-12-18T04:36:10;-11.22;79.77
62464;SHT31;48512;48.552;9.380;2022-12-18T04:38:37;-11.12;79.71
62464;SHT31;48512;48.552;9.380;2022-12-18T04:41:02;-11.09;79.42
62464;SHT31;48512;48.552;9.380;2022-12-18T04:43:28;-11.08;79.28
62464;SHT31;48512;48.552;9.380;2022-12-18T04:45:53;-11.30;79.62
62464;SHT31;48512;48.552;9.380;2022-12-18T04:48:18;-11.33;79.61
62464;SHT31;48512;48.552;9.380;2022-12-18T04:50:46;-11.33;79.80
62464;SHT31;48512;48.552;9.380;2022-12-18T04:53:11;-11.33;79.98
62464;SHT31;48512;48.552;9.380;2022-12-18T04:55:36;-11.36;80.25
62464;SHT31;48512;48.552;9.380;2022-12-18T04:58:02;-11.26;80.18
62464;SHT31;48512;48.552;9.380;2022-12-18T05:00:27;-11.16;80.32
62464;SHT31;48512;48.552;9.380;2022-12-18T05:02:52;-11.12;80.38
62464;SHT31;48512;48.552;9.380;2022-12-18T05:05:20;-10.96;80.41
62464;SHT31;48512;48.552;9.380;2022-12-18T05:07:45;-10.79;80.46
62464;SHT31;48512;48.552;9.380;2022-12-18T05:10:10;-10.81;80.62
62464;SHT31;48512;48.552;9.380;2022-12-18T05:12:36;-10.60;80.53
62464;SHT31;48512;48.552;9.380;2022-12-18T05:15:23;-10.64;80.86
62464;SHT31;48512;48.552;9.380;2022-12-18T05:17:48;-10.65;81.37
62464;SHT31;48512;48.552;9.380;2022-12-18T05:20:13;-10.53;81.13
62464;SHT31;48512;48.552;9.380;2022-12-18T05:22:38;-10.50;81.68
62464;SHT31;48512;48.552;9.380;2022-12-18T05:25:06;-10.37;81.17
62464;SHT31;48512;48.552;9.380;2022-12-18T05:27:34;-10.29;81.16
62464;SHT31;48512;48.552;9.380;2022-12-18T05:29:59;-10.37;81.80
62464;SHT31;48512;48.552;9.380;2022-12-18T05:32:25;-10.22;81.65
62464;SHT31;48512;48.552;9.380;2022-12-18T05:34:50;-10.27;81.30
62464;SHT31;48512;48.552;9.380;2022-12-18T05:37:15;-10.32;81.55
62464;SHT31;48512;48.552;9.380;2022-12-18T05:39:42;-10.34;81.59
62464;SHT31;48512;48.552;9.380;2022-12-18T05:42:07;-10.33;81.95
62464;SHT31;48512;48.552;9.380;2022-12-18T05:44:32;-10.40;82.36
62464;SHT31;48512;48.552;9.380;2022-12-18T05:46:57;-10.27;82.48
62464;SHT31;48512;48.552;9.380;2022-12-18T05:49:23;-10.20;82.70
62464;SHT31;48512;48.552;9.380;2022-12-18T05:51:48;-10.19;82.93
62464;SHT31;48512;48.552;9.380;2022-12-18T05:54:14;-10.10;82.89
62464;SHT31;48512;48.552;9.380;2022-12-18T05:56:39;-10.01;82.90
62464;SHT31;48512;48.552;9.380;2022-12-18T05:59:04;-10.03;83.44
62464;SHT31;48512;48.552;9.380;2022-12-18T06:01:29;-9.98;83.56
62464;SHT31;48512;48.552;9.380;2022-12-18T06:03:55;-10.02;84.22
62464;SHT31;48512;48.552;9.380;2022-12-18T06:06:21;-9.92;84.16
62464;SHT31;48512;48.552;9.380;2022-12-18T06:08:47;-9.71;83.73
62464;SHT31;48512;48.552;9.380;2022-12-18T06:11:15;-9.78;83.68
62464;SHT31;48512;48.552;9.380;2022-12-18T06:13:43;-9.82;83.59
62464;SHT31;48512;48.552;9.380;2022-12-18T06:16:09;-9.83;83.18
62464;SHT31;48512;48.552;9.380;2022-12-18T06:18:36;-9.78;82.73
62464;SHT31;48512;48.552;9.380;2022-12-18T06:21:02;-9.79;82.82
62464;SHT31;48512;48.552;9.380;2022-12-18T06:23:27;-9.71;82.59
62464;SHT31;48512;48.552;9.380;2022-12-18T06:25:55;-9.77;82.23
62464;SHT31;48512;48.552;9.380;2022-12-18T06:28:20;-9.83;82.13
62464;SHT31;48512;48.552;9.380;2022-12-18T06:30:46;-9.79;82.15
62464;SHT31;48512;48.552;9.380;2022-12-18T06:33:12;-9.64;81.28
62464;SHT31;48512;48.552;9.380;2022-12-18T06:35:37;-9.74;80.84
62464;SHT31;48512;48.552;9.380;2022-12-18T06:38:02;-9.82;80.66
62464;SHT31;48512;48.552;9.380;2022-12-18T06:40:28;-9.83;80.02
62464;SHT31;48512;48.552;9.380;2022-12-18T06:42:53;-9.98;79.70
62464;SHT31;48512;48.552;9.380;2022-12-18T06:45:18;-10.17;80.32
62464;SHT31;48512;48.552;9.380;2022-12-18T06:47:43;-10.03;80.61
62464;SHT31;48512;48.552;9.380;2022-12-18T06:50:09;-9.92;80.66
62464;SHT31;48512;48.552;9.380;2022-12-18T06:52:34;-10.13;80.70
62464;SHT31;48512;48.552;9.380;2022-12-18T06:55:00;-10.09;81.05
62464;SHT31;48512;48.552;9.380;2022-12-18T06:57:25;-9.99;80.89
62464;SHT31;48512;48.552;9.380;2022-12-18T06:59:50;-9.96;80.62
62464;SHT31;48512;48.552;9.380;2022-12-18T07:02:15;-9.89;79.82
62464;SHT31;48512;48.552;9.380;2022-12-18T07:04:41;-9.98;79.82
62464;SHT31;48512;48.552;9.380;2022-12-18T07:07:06;-9.96;79.95
62464;SHT31;48512;48.552;9.380;2022-12-18T07:09:32;-10.09;79.73
62464;SHT31;48512;48.552;9.380;2022-12-18T07:11:57;-10.12;79.98
62464;SHT31;48512;48.552;9.380;2022-12-18T07:14:22;-10.23;80.21
62464;SHT31;48512;48.552;9.380;2022-12-18T07:16:50;-10.12;80.04
62464;SHT31;48512;48.552;9.380;2022-12-18T07:19:15;-9.96;79.61
62464;SHT31;48512;48.552;9.380;2022-12-18T07:21:43;-9.96;79.01
62464;SHT31;48512;48.552;9.380;2022-12-18T07:24:08;-9.95;79.23
62464;SHT31;48512;48.552;9.380;2022-12-18T07:26:33;-9.88;79.58
62464;SHT31;48512;48.552;9.380;2022-12-18T07:29:01;-10.01;79.30
62464;SHT31;48512;48.552;9.380;2022-12-18T07:31:27;-9.99;79.82
62464;SHT31;48512;48.552;9.380;2022-12-18T07:33:52;-10.08;80.35
62464;SHT31;48512;48.552;9.380;2022-12-18T07:36:20;-9.99;80.17
62464;SHT31;48512;48.552;9.380;2022-12-18T07:38:50;-9.95;80.05
62464;SHT31;48512;48.552;9.380;2022-12-18T07:41:17;-9.83;80.37
62464;SHT31;48512;48.552;9.380;2022-12-18T07:43:43;-9.85;80.77
62464;SHT31;48512;48.552;9.380;2022-12-18T07:46:09;-9.83;81.00
62464;SHT31;48512;48.552;9.380;2022-12-18T07:48:35;-9.95;80.36
62464;SHT31;48512;48.552;9.380;2022-12-18T07:51:00;-9.92;80.20
62464;SHT31;48512;48.552;9.380;2022-12-18T07:53:26;-9.72;79.99
62464;SHT31;48512;48.552;9.380;2022-12-18T07:55:57;-9.58;81.88
62464;SHT31;48512;48.552;9.380;2022-12-18T07:58:22;-9.03;88.56
62464;SHT31;48512;48.552;9.380;2022-12-18T08:00:50;-8.88;84.91
62464;SHT31;48512;48.552;9.380;2022-12-18T08:03:15;-9.22;81.34
62464;SHT31;48512;48.552;9.380;2022-12-18T08:05:41;-9.26;82.38
62464;SHT31;48512;48.552;9.380;2022-12-18T08:08:09;-9.31;82.24
62464;SHT31;48512;48.552;9.380;2022-12-18T08:10:34;-9.37;82.14
62464;SHT31;48512;48.552;9.380;2022-12-18T08:12:59;-9.48;81.62
62464;SHT31;48512;48.552;9.380;2022-12-18T08:15:24;-9.47;81.31
62464;SHT31;48512;48.552;9.380;2022-12-18T08:17:50;-9.22;81.88
62464;SHT31;48512;48.552;9.380;2022-12-18T08:20:15;-9.08;84.10
62464;SHT31;48512;48.552;9.380;2022-12-18T08:22:41;-8.99;83.36
62464;SHT31;48512;48.552;9.380;2022-12-18T08:25:07;-8.88;81.36
62464;SHT31;48512;48.552;9.380;2022-12-18T08:27:34;-8.93;81.54
62464;SHT31;48512;48.552;9.380;2022-12-18T08:30:00;-8.72;81.73
62464;SHT31;48512;48.552;9.380;2022-12-18T08:32:28;-8.69;81.53
62464;SHT31;48512;48.552;9.380;2022-12-18T08:34:53;-8.48;85.43
62464;SHT31;48512;48.552;9.380;2022-12-18T08:37:20;-7.70;93.48
62464;SHT31;48512;48.552;9.380;2022-12-18T08:39:46;-7.02;93.46
62464;SHT31;48512;48.552;9.380;2022-12-18T08:42:16;-6.41;92.61
62464;SHT31;48512;48.552;9.380;2022-12-18T08:45:01;-5.88;90.78
62464;SHT31;48512;48.552;9.380;2022-12-18T08:47:26;-5.58;89.58
62464;SHT31;48512;48.552;9.380;2022-12-18T08:49:52;-5.26;87.92
62464;SHT31;48512;48.552;9.380;2022-12-18T08:52:17;-5.27;88.09
62464;SHT31;48512;48.552;9.380;2022-12-18T08:54:42;-5.12;87.25
62464;SHT31;48512;48.552;9.380;2022-12-18T08:57:08;-5.09;87.60
62464;SHT31;48512;48.552;9.380;2022-12-18T08:59:33;-5.02;87.41
62464;SHT31;48512;48.552;9.380;2022-12-18T09:01:59;-4.86;87.04
62464;SHT31;48512;48.552;9.380;2022-12-18T09:04:24;-4.88;86.72
62464;SHT31;48512;48.552;9.380;2022-12-18T09:06:49;-4.50;85.78
62464;SHT31;48512;48.552;9.380;2022-12-18T09:09:14;-4.03;84.05
62464;SHT31;48512;48.552;9.380;2022-12-18T09:11:40;-3.88;83.49
62464;SHT31;48512;48.552;9.380;2022-12-18T09:14:05;-3.78;83.18
62464;SHT31;48512;48.552;9.380;2022-12-18T09:16:31;-3.33;81.39
62464;SHT31;48512;48.552;9.380;2022-12-18T09:18:57;-3.02;80.82
62464;SHT31;48512;48.552;9.380;2022-12-18T09:21:25;-2.97;80.31
62464;SHT31;48512;48.552;9.380;2022-12-18T09:23:51;-2.65;79.41
62464;SHT31;48512;48.552;9.380;2022-12-18T09:26:17;-2.53;78.62
62464;SHT31;48512;48.552;9.380;2022-12-18T09:28:42;-2.51;78.64
62464;SHT31;48512;48.552;9.380;2022-12-18T09:31:08;-2.36;77.95
62464;SHT31;48512;48.552;9.380;2022-12-18T09:33:36;-2.26;77.67
62464;SHT31;48512;48.552;9.380;2022-12-18T09:36:03;-2.11;77.08
62464;SHT31;48512;48.552;9.380;2022-12-18T09:38:28;-1.96;76.53
62464;SHT31;48512;48.552;9.380;2022-12-18T09:40:55;-1.79;75.78
62464;SHT31;48512;48.552;9.380;2022-12-18T09:46:04;-1.33;74.65
62464;SHT31;48512;48.552;9.380;2022-12-18T09:48:32;-1.44;74.45
62464;SHT31;48512;48.552;9.380;2022-12-18T09:51:03;-1.29;74.42
62464;SHT31;48512;48.552;9.380;2022-12-18T09:53:31;-1.19;73.83
62464;SHT31;48512;48.552;9.380;2022-12-18T09:56:00;-0.88;73.02
62464;SHT31;48512;48.552;9.380;2022-12-18T10:00:57;-0.78;72.87
62464;SHT31;48512;48.552;9.380;2022-12-18T10:03:25;-0.71;72.03
62464;SHT31;48512;48.552;9.380;2022-12-18T10:06:01;-0.62;72.04
62464;SHT31;48512;48.552;9.380;2022-12-18T10:11:01;-0.47;71.33
62464;SHT31;48512;48.552;9.380;2022-12-18T10:13:39;-0.05;70.00
62464;SHT31;48512;48.552;9.380;2022-12-18T10:16:22;0.26;69.43
62464;SHT31;48512;48.552;9.380;2022-12-18T10:21:23;1.03;67.55
62464;SHT31;48512;48.552;9.380;2022-12-18T10:23:58;1.08;67.23
62464;SHT31;48512;48.552;9.380;2022-12-18T10:26:27;1.41;66.48
62464;SHT31;48512;48.552;9.380;2022-12-18T10:28:55;1.54;64.99
62464;SHT31;48512;48.552;9.380;2022-12-18T10:31:22;1.69;64.28
62464;SHT31;48512;48.552;9.380;2022-12-18T10:33:48;1.54;65.40
62464;SHT31;48512;48.552;9.380;2022-12-18T10:36:13;2.00;64.03
62464;SHT31;48512;48.552;9.380;2022-12-18T10:38:39;2.15;63.66
62464;SHT31;48512;48.552;9.380;2022-12-18T10:46:36;2.24;63.50
62464;SHT31;48512;48.552;9.380;2022-12-18T10:49:02;2.03;63.19
62464;SHT31;48512;48.552;9.380;2022-12-18T10:51:33;2.18;63.14
62464;SHT31;48512;48.552;9.380;2022-12-18T10:54:03;2.18;62.85
62464;SHT31;48512;48.552;9.380;2022-12-18T10:56:29;2.31;62.34
62464;SHT31;48512;48.552;9.380;2022-12-18T10:58:57;2.44;62.56
62464;SHT31;48512;48.552;9.380;2022-12-18T11:01:22;2.49;62.27
62464;SHT31;48512;48.552;9.380;2022-12-18T11:06:20;2.34;63.43
62464;SHT31;48512;48.552;9.380;2022-12-18T11:11:24;2.85;61.90
62464;SHT31;48512;48.552;9.380;2022-12-18T11:16:24;3.55;60.68
62464;SHT31;48512;48.552;9.380;2022-12-18T11:18:50;3.61;60.08
62464;SHT31;48512;48.552;9.380;2022-12-18T11:21:15;3.87;59.46
62464;SHT31;48512;48.552;9.380;2022-12-18T11:23:47;4.14;58.82
62464;SHT31;48512;48.552;9.380;2022-12-18T11:26:14;4.24;58.46
62464;SHT31;48512;48.552;9.380;2022-12-18T11:28:50;4.52;56.84
62464;SHT31;48512;48.552;9.380;2022-12-18T11:31:20;4.71;55.65
62464;SHT31;48512;48.552;9.380;2022-12-18T11:33:54;4.68;56.95
62464;SHT31;48512;48.552;9.380;2022-12-18T11:36:21;4.65;56.46
62464;SHT31;48512;48.552;9.380;2022-12-18T11:38:46;4.85;55.08
62464;SHT31;48512;48.552;9.380;2022-12-18T11:41:26;4.67;55.52
62464;SHT31;48512;48.552;9.380;2022-12-18T11:44:29;4.65;54.52
62464;SHT31;48512;48.552;9.380;2022-12-18T11:49:42;4.54;56.28
62464;SHT31;48512;48.552;9.380;2022-12-18T11:52:24;4.85;55.84
62464;SHT31;48512;48.552;9.380;2022-12-18T11:54:51;5.07;55.21
62464;SHT31;48512;48.552;9.380;2022-12-18T12:00:04;4.78;55.74
62464;SHT31;48512;48.552;9.380;2022-12-18T12:02:45;4.69;55.90
62464;SHT31;48512;48.552;9.380;2022-12-18T12:25:56;3.23;59.64
62464;SHT31;48512;48.552;9.380;2022-12-18T12:31:13;3.20;60.70
62464;SHT31;48512;48.552;9.380;2022-12-18T12:38:54;2.69;61.38
62464;SHT31;48512;48.552;9.380;2022-12-18T12:41:23;2.22;62.39
62464;SHT31;48512;48.552;9.380;2022-12-18T12:44:15;2.21;62.49
62464;SHT31;48512;48.552;9.380;2022-12-18T12:46:41;1.97;63.76
62464;SHT31;48512;48.552;9.380;2022-12-18T12:49:09;1.83;63.87
62464;SHT31;48512;48.552;9.380;2022-12-18T12:51:37;1.87;64.23
62464;SHT31;48512;48.552;9.380;2022-12-18T12:54:13;1.73;64.01
62464;SHT31;48512;48.552;9.380;2022-12-18T12:59:47;1.23;65.39
62464;SHT31;48512;48.552;9.380;2022-12-18T13:04:49;1.01;66.82
62464;SHT31;48512;48.552;9.380;2022-12-18T13:07:26;0.90;66.72
62464;SHT31;48512;48.552;9.380;2022-12-18T13:12:36;0.75;66.88
62464;SHT31;48512;48.552;9.380;2022-12-18T13:15:21;0.70;67.34
62464;SHT31;48512;48.552;9.380;2022-12-18T13:17:47;0.72;67.87
62464;SHT31;48512;48.552;9.380;2022-12-18T13:20:15;3.51;90.99
62464;SHT31;48512;48.552;9.380;2022-12-18T13:22:48;5.48;78.91
62464;SHT31;48512;48.552;9.380;2022-12-18T13:25:30;6.96;66.93
62464;SHT31;48512;48.552;9.380;2022-12-18T13:35:41;3.37;58.37
62464;SHT31;48512;48.552;9.380;2022-12-18T13:48:18;1.23;65.60
62464;SHT31;48512;48.552;9.380;2022-12-18T13:50:48;1.23;67.64
62464;SHT31;48512;48.552;9.380;2022-12-18T13:53:23;1.17;66.21
62464;SHT31;48512;48.552;9.380;2022-12-18T13:55:49;0.94;66.87
62464;SHT31;48512;48.552;9.380;2022-12-18T13:58:15;0.86;66.61
62464;SHT31;48512;48.552;9.380;2022-12-18T14:00:41;0.77;66.92
62464;SHT31;48512;48.552;9.380;2022-12-18T14:03:20;0.63;67.05
62464;SHT31;48512;48.552;9.380;2022-12-18T14:05:46;0.44;67.29
62464;SHT31;48512;48.552;9.380;2022-12-18T14:08:17;0.00;68.94
62464;SHT31;48512;48.552;9.380;2022-12-18T14:10:46;0.14;68.44
62464;SHT31;48512;48.552;9.380;2022-12-18T14:13:15;-0.03;68.99
62464;SHT31;48512;48.552;9.380;2022-12-18T14:15:42;-0.20;69.86
62464;SHT31;48512;48.552;9.380;2022-12-18T14:20:43;-0.48;69.99
62464;SHT31;48512;48.552;9.380;2022-12-18T14:25:52;-0.76;71.24
62464;SHT31;48512;48.552;9.380;2022-12-18T14:28:20;-0.78;71.54
62464;SHT31;48512;48.552;9.380;2022-12-18T14:30:47;-0.64;71.78
62464;SHT31;48512;48.552;9.380;2022-12-18T14:33:14;-0.51;72.87
62464;SHT31;48512;48.552;9.380;2022-12-18T14:40:52;-0.82;72.09
62464;SHT31;48512;48.552;9.380;2022-12-18T14:43:20;-0.99;71.62
62464;SHT31;48512;48.552;9.380;2022-12-18T14:45:45;-1.06;72.24
62464;SHT31;48512;48.552;9.380;2022-12-18T14:50:36;-1.40;72.56
62464;SHT31;48512;48.552;9.380;2022-12-18T14:53:02;-1.37;72.66
62464;SHT31;48512;48.552;9.380;2022-12-18T14:55:27;-1.48;72.97
62464;SHT31;48512;48.552;9.380;2022-12-18T14:57:53;-1.83;74.04
62464;SHT31;48512;48.552;9.380;2022-12-18T15:00:21;-1.88;74.69
62464;SHT31;48512;48.552;9.380;2022-12-18T15:02:50;-1.82;74.30
62464;SHT31;48512;48.552;9.380;2022-12-18T15:12:42;-1.95;73.98
62464;SHT31;48512;48.552;9.380;2022-12-18T15:20:40;-2.38;75.19
62464;SHT31;48512;48.552;9.380;2022-12-18T15:23:22;-2.27;75.21
62464;SHT31;48512;48.552;9.380;2022-12-18T15:25:49;-2.30;74.99
62464;SHT31;48512;48.552;9.380;2022-12-18T15:28:21;-2.44;75.23
62464;SHT31;48512;48.552;9.380;2022-12-18T15:31:30;-2.47;75.23
62464;SHT31;48512;48.552;9.380;2022-12-18T15:33:40;-2.38;75.29
62464;SHT31;48512;48.552;9.380;2022-12-18T15:36:13;-2.43;75.13
62464;SHT31;48512;48.552;9.380;2022-12-18T15:38:39;-2.57;75.75
62464;SHT31;48512;48.552;9.380;2022-12-18T15:41:16;-2.62;75.85
62464;SHT31;48512;48.552;9.380;2022-12-18T15:43:43;-2.82;76.69
62464;SHT31;48512;48.552;9.380;2022-12-18T15:48:40;-2.74;76.11
62464;SHT31;48512;48.552;9.380;2022-12-18T15:51:09;-2.62;75.76
62464;SHT31;48512;48.552;9.380;2022-12-18T15:53:35;-2.86;76.05
62464;SHT31;48512;48.552;9.380;2022-12-18T15:56:01;-2.89;76.49
62464;SHT31;48512;48.552;9.380;2022-12-18T15:58:44;-2.82;76.24
62464;SHT31;48512;48.552;9.380;2022-12-18T16:01:12;-2.78;76.31
62464;SHT31;48512;48.552;9.380;2022-12-18T16:03:38;-2.85;76.27
62464;SHT31;48512;48.552;9.380;2022-12-18T16:06:03;-2.92;76.22
62464;SHT31;48512;48.552;9.380;2022-12-18T16:08:31;-2.85;76.34
62464;SHT31;48512;48.552;9.380;2022-12-18T16:10:56;-3.00;76.78
62464;SHT31;48512;48.552;9.380;2022-12-18T16:13:24;-2.91;76.20
62464;SHT31;48512;48.552;9.380;2022-12-18T16:15:50;-2.97;76.31
62464;SHT31;48512;48.552;9.380;2022-12-18T16:18:15;-3.00;76.78
62464;SHT31;48512;48.552;9.380;2022-12-18T16:20:40;-3.06;76.71
62464;SHT31;48512;48.552;9.380;2022-12-18T16:23:06;-3.12;76.95
62464;SHT31;48512;48.552;9.380;2022-12-18T16:25:31;-3.19;77.19
62464;SHT31;48512;48.552;9.380;2022-12-18T16:27:56;-3.10;77.38
62464;SHT31;48512;48.552;9.380;2022-12-18T16:30:26;-3.13;77.12
62464;SHT31;48512;48.552;9.380;2022-12-18T16:32:53;-3.20;77.49
62464;SHT31;48512;48.552;9.380;2022-12-18T16:35:18;-3.12;76.96
62464;SHT31;48512;48.552;9.380;2022-12-18T16:37:46;-3.05;76.99
62464;SHT31;48512;48.552;9.380;2022-12-18T16:40:16;-3.09;76.98
62464;SHT31;48512;48.552;9.380;2022-12-18T16:42:42;-3.16;77.39
62464;SHT31;48512;48.552;9.380;2022-12-18T16:45:09;-3.27;77.50
62464;SHT31;48512;48.552;9.380;2022-12-18T16:47:34;-3.24;77.44
62464;SHT31;48512;48.552;9.380;2022-12-18T16:50:00;-3.13;77.18
62464;SHT31;48512;48.552;9.380;2022-12-18T16:52:25;-3.06;77.36
62464;SHT31;48512;48.552;9.380;2022-12-18T16:54:51;-3.06;77.40
62464;SHT31;48512;48.552;9.380;2022-12-18T16:57:19;-3.09;77.44
62464;SHT31;48512;48.552;9.380;2022-12-18T16:59:45;-3.19;77.30
62464;SHT31;48512;48.552;9.380;2022-12-18T17:02:28;-3.12;77.30
62464;SHT31;48512;48.552;9.380;2022-12-18T17:04:54;-3.20;77.21
62464;SHT31;48512;48.552;9.380;2022-12-18T17:07:22;-3.23;77.69
62464;SHT31;48512;48.552;9.380;2022-12-18T17:09:48;-3.16;77.69
62464;SHT31;48512;48.552;9.380;2022-12-18T17:12:18;-3.07;76.98
62464;SHT31;48512;48.552;9.380;2022-12-18T17:14:43;-3.12;77.09
62464;SHT31;48512;48.552;9.380;2022-12-18T17:17:09;-3.14;77.38
62464;SHT31;48512;48.552;9.380;2022-12-18T17:19:36;-3.33;77.96
62464;SHT31;48512;48.552;9.380;2022-12-18T17:22:02;-3.30;78.20
62464;SHT31;48512;48.552;9.380;2022-12-18T17:24:28;-3.24;78.36
62464;SHT31;48512;48.552;9.380;2022-12-18T17:26:54;-3.27;77.75
62464;SHT31;48512;48.552;9.380;2022-12-18T17:29:19;-3.17;77.79
62464;SHT31;48512;48.552;9.380;2022-12-18T17:31:47;-3.26;78.23
62464;SHT31;48512;48.552;9.380;2022-12-18T17:34:13;-3.00;77.67
62464;SHT31;48512;48.552;9.380;2022-12-18T17:36:38;-3.03;77.34
62464;SHT31;48512;48.552;9.380;2022-12-18T17:39:05;-3.05;77.52
62464;SHT31;48512;48.552;9.380;2022-12-18T17:41:31;-2.92;77.18
62464;SHT31;48512;48.552;9.380;2022-12-18T17:43:57;-2.84;79.16
62464;SHT31;48512;48.552;9.380;2022-12-18T17:46:26;-2.69;76.78
62464;SHT31;48512;48.552;9.380;2022-12-18T17:48:56;-2.78;76.24
62464;SHT31;48512;48.552;9.380;2022-12-18T17:51:21;-2.81;76.53
62464;SHT31;48512;48.552;9.380;2022-12-18T17:53:47;-2.79;76.97